Time;durP1;ratioP1;P1;durP2;ratioP2;P2;SDS_P1;SDS_P2;PMS_P1;PMS_P2;Temp;Humidity;BMP_temperature;BMP_pressure;BME280_temperature;BME280_humidity;BME280_pressure;Samples;Min_cycle;Max_cycle;Signal;HPM_P1;HPM_P2
2022/04/28 00:00:20;;;;;;;5.93;3.80;;;11.70;99.90;;;;;;5008838;28;20030;-74
2022/04/28 00:02:47;;;;;;;4.85;2.78;;;11.50;99.90;;;;;;5012614;28;20451;-74
2022/04/28 00:05:13;;;;;;;6.18;3.30;;;11.50;99.90;;;;;;5004368;28;20089;-74
2022/04/28 00:07:39;;;;;;;5.00;2.90;;;11.40;99.90;;;;;;4997421;28;20061;-74
2022/04/28 00:10:06;;;;;;;7.13;3.13;;;11.40;99.90;;;;;;5004183;28;20049;-74
2022/04/28 00:12:32;;;;;;;11.65;3.28;;;11.50;99.90;;;;;;5012556;28;20033;-74
2022/04/28 00:14:58;;;;;;;6.97;3.33;;;11.40;99.90;;;;;;4995275;28;20023;-74
2022/04/28 00:17:24;;;;;;;5.78;3.38;;;11.50;99.90;;;;;;5004547;28;20381;-74
2022/04/28 00:19:49;;;;;;;6.55;2.97;;;11.50;99.90;;;;;;5010612;28;20057;-74
2022/04/28 00:22:16;;;;;;;6.03;3.20;;;11.50;99.90;;;;;;5008128;28;20038;-74
2022/04/28 00:24:43;;;;;;;6.20;3.75;;;11.60;99.90;;;;;;5007067;28;20037;-74
2022/04/28 00:27:09;;;;;;;6.22;3.25;;;11.80;99.90;;;;;;5001734;28;20046;-74
2022/04/28 00:29:34;;;;;;;6.07;3.42;;;11.90;99.90;;;;;;5004118;28;20450;-74
2022/04/28 00:32:01;;;;;;;6.72;3.08;;;11.80;99.90;;;;;;5009214;28;20508;-74
2022/04/28 00:34:26;;;;;;;7.82;3.28;;;11.80;99.90;;;;;;5007545;28;20037;-74
2022/04/28 00:36:53;;;;;;;6.65;2.80;;;11.90;99.90;;;;;;5006755;28;20385;-74
2022/04/28 00:39:19;;;;;;;5.63;3.03;;;12.00;99.90;;;;;;5000970;28;20038;-74
2022/04/28 00:41:44;;;;;;;6.93;4.15;;;12.00;99.90;;;;;;5006490;28;20041;-74
2022/04/28 00:44:11;;;;;;;5.32;3.33;;;12.10;99.90;;;;;;5010592;28;20172;-74
2022/04/28 00:46:38;;;;;;;5.38;2.88;;;12.10;99.90;;;;;;5004022;28;20057;-74
2022/04/28 00:51:49;;;;;;;6.28;2.83;;;11.70;99.90;;;;;;5010297;28;20135;-74
2022/04/28 00:54:14;;;;;;;5.82;3.00;;;11.50;99.90;;;;;;5004367;28;20138;-74
2022/04/28 00:56:40;;;;;;;4.45;2.35;;;11.40;99.90;;;;;;5009866;28;20563;-74
2022/04/28 00:59:07;;;;;;;7.43;2.60;;;11.20;99.90;;;;;;5008917;28;20041;-75
2022/04/28 01:01:33;;;;;;;6.55;2.90;;;11.10;99.90;;;;;;5011345;28;20037;-74
2022/04/28 01:03:59;;;;;;;5.15;2.58;;;11.20;99.90;;;;;;5007097;28;20037;-74
2022/04/28 01:06:26;;;;;;;5.32;2.95;;;11.20;99.90;;;;;;5006370;28;20045;-74
2022/04/28 01:08:51;;;;;;;5.38;2.47;;;11.30;99.90;;;;;;5006955;28;20424;-74
2022/04/28 01:11:19;;;;;;;4.97;2.67;;;11.20;99.90;;;;;;5006728;28;20054;-74
2022/04/28 01:13:45;;;;;;;6.80;3.53;;;11.30;99.90;;;;;;5002154;28;20523;-74
2022/04/28 01:16:13;;;;;;;5.47;2.85;;;11.50;99.90;;;;;;5005991;28;20041;-74
2022/04/28 01:18:40;;;;;;;7.80;3.10;;;11.50;99.90;;;;;;5005867;28;20113;-74
2022/04/28 01:21:08;;;;;;;4.25;2.53;;;11.50;99.90;;;;;;5008690;28;20057;-74
2022/04/28 01:23:35;;;;;;;6.78;3.40;;;11.40;99.90;;;;;;5008915;28;20439;-74
2022/04/28 01:26:02;;;;;;;5.57;2.58;;;11.30;99.90;;;;;;5010123;28;20095;-74
2022/04/28 01:28:32;;;;;;;6.80;2.72;;;11.40;99.90;;;;;;5001934;28;20044;-74
2022/04/28 01:31:05;;;;;;;5.72;2.90;;;11.40;99.90;;;;;;5002583;28;20035;-74
2022/04/28 01:33:31;;;;;;;6.32;3.13;;;11.30;99.90;;;;;;5001283;28;20057;-74
2022/04/28 01:35:56;;;;;;;4.38;2.40;;;11.20;99.90;;;;;;5009848;28;20064;-74
2022/04/28 01:38:22;;;;;;;6.43;2.63;;;11.20;99.90;;;;;;4999583;28;20025;-74
2022/04/28 01:40:48;;;;;;;5.35;2.83;;;11.10;99.90;;;;;;5011547;28;20092;-74
2022/04/28 01:43:14;;;;;;;5.72;2.90;;;11.10;99.90;;;;;;5000377;28;20472;-74
2022/04/28 01:45:39;;;;;;;7.85;3.28;;;11.20;99.90;;;;;;5005416;28;20050;-74
2022/04/28 01:48:05;;;;;;;5.38;2.90;;;11.30;99.90;;;;;;4997655;28;20038;-74
2022/04/28 01:50:30;;;;;;;6.35;3.05;;;11.30;99.90;;;;;;5011357;28;20034;-74
2022/04/28 01:55:40;;;;;;;7.43;3.03;;;11.20;99.90;;;;;;5008997;28;20182;-75
2022/04/28 01:58:06;;;;;;;5.55;2.60;;;11.10;99.90;;;;;;5001546;28;20038;-74
2022/04/28 02:00:32;;;;;;;4.53;2.10;;;11.10;99.90;;;;;;5011219;28;20400;-74
2022/04/28 02:02:58;;;;;;;4.53;2.22;;;11.20;99.90;;;;;;5006964;28;20034;-74
2022/04/28 02:05:24;;;;;;;3.90;2.38;;;11.60;99.40;;;;;;5006004;28;20029;-74
2022/04/28 02:07:49;;;;;;;5.38;3.15;;;11.50;99.90;;;;;;5006547;28;20045;-74
2022/04/28 02:10:15;;;;;;;4.53;2.47;;;11.40;99.90;;;;;;5008942;28;20034;-74
2022/04/28 02:12:41;;;;;;;4.68;2.55;;;11.50;99.90;;;;;;4998963;28;20506;-74
2022/04/28 02:15:07;;;;;;;5.60;2.65;;;11.30;99.90;;;;;;5008679;28;20541;-74
2022/04/28 02:17:38;;;;;;;4.38;2.17;;;11.40;99.90;;;;;;5004035;28;20044;-75
2022/04/28 02:20:10;;;;;;;4.50;2.40;;;11.40;99.90;;;;;;5010977;28;20503;-74
2022/04/28 02:22:36;;;;;;;3.42;1.98;;;11.30;99.90;;;;;;5005688;28;20108;-74
2022/04/28 02:25:02;;;;;;;6.55;1.90;;;11.30;99.90;;;;;;5007519;28;20029;-74
2022/04/28 02:27:28;;;;;;;3.30;1.80;;;11.50;98.70;;;;;;5008361;28;20403;-74
2022/04/28 02:29:54;;;;;;;5.43;1.70;;;11.60;97.70;;;;;;5010130;28;20121;-74
2022/04/28 02:32:20;;;;;;;3.78;1.90;;;11.70;97.20;;;;;;5006113;28;20129;-75
2022/04/28 02:34:46;;;;;;;4.03;2.00;;;11.60;98.10;;;;;;5012912;28;20120;-75
2022/04/28 02:37:13;;;;;;;4.57;2.20;;;11.60;99.30;;;;;;5006576;28;20059;-74
2022/04/28 02:39:39;;;;;;;4.70;1.83;;;11.50;99.90;;;;;;5010320;28;20037;-75
2022/04/28 02:42:05;;;;;;;7.97;2.17;;;11.30;99.90;;;;;;5006797;28;20076;-74
2022/04/28 02:44:31;;;;;;;4.30;2.05;;;11.20;99.90;;;;;;5009267;28;20057;-75
2022/04/28 02:46:57;;;;;;;4.15;2.13;;;11.20;99.90;;;;;;5006596;28;20049;-74
2022/04/28 02:49:22;;;;;;;5.00;2.10;;;10.90;99.90;;;;;;5013323;28;20495;-74
2022/04/28 02:51:48;;;;;;;3.17;1.70;;;10.90;99.90;;;;;;5003896;28;20116;-74
2022/04/28 02:54:14;;;;;;;3.80;2.15;;;11.00;99.90;;;;;;5013974;28;20029;-75
2022/04/28 02:56:39;;;;;;;3.55;1.90;;;11.00;99.90;;;;;;5007497;28;20377;-74
2022/04/28 02:59:05;;;;;;;5.20;2.28;;;11.20;99.90;;;;;;5013923;28;20060;-75
2022/04/28 03:01:31;;;;;;;3.90;2.10;;;11.20;99.90;;;;;;5005896;28;20049;-74
2022/04/28 03:03:56;;;;;;;6.43;1.95;;;11.10;99.90;;;;;;5005460;28;20030;-73
2022/04/28 03:11:53;;;;;;;4.40;1.88;;;11.40;99.90;;;;;;4993692;28;20593;-73
2022/04/28 03:14:19;;;;;;;3.22;1.85;;;11.40;99.80;;;;;;5001844;28;20507;-74
2022/04/28 03:16:45;;;;;;;4.07;1.90;;;11.20;99.90;;;;;;5003829;28;20037;-74
2022/04/28 03:19:11;;;;;;;5.70;2.20;;;11.20;99.90;;;;;;4998832;28;20034;-77
2022/04/28 03:21:37;;;;;;;4.80;1.85;;;11.30;99.60;;;;;;5005068;28;20026;-76
2022/04/28 03:24:04;;;;;;;3.78;2.00;;;11.50;98.40;;;;;;5002972;28;20026;-74
2022/04/28 03:26:30;;;;;;;3.72;2.03;;;11.60;98.30;;;;;;5007317;28;20049;-74
2022/04/28 03:28:56;;;;;;;2.78;1.65;;;11.60;98.20;;;;;;5007161;28;20041;-76
2022/04/28 03:31:22;;;;;;;3.25;1.92;;;11.50;96.50;;;;;;5006527;28;20473;-76
2022/04/28 03:33:48;;;;;;;5.03;1.75;;;11.60;96.10;;;;;;5006814;28;20061;-74
2022/04/28 03:38:58;;;;;;;2.75;1.38;;;11.60;95.70;;;;;;5005930;28;20572;-76
2022/04/28 03:41:24;;;;;;;3.30;1.50;;;11.60;95.60;;;;;;5008654;28;20112;-76
2022/04/28 03:43:50;;;;;;;4.15;1.80;;;11.60;95.70;;;;;;4999351;28;20114;-76
2022/04/28 03:46:17;;;;;;;3.38;1.52;;;11.60;95.60;;;;;;5000362;28;20172;-76
2022/04/28 03:48:44;;;;;;;4.53;1.52;;;11.60;95.40;;;;;;5007059;28;20044;-76
2022/04/28 03:51:10;;;;;;;5.53;1.50;;;11.50;95.80;;;;;;5006788;28;20409;-75
2022/04/28 03:53:35;;;;;;;4.07;1.55;;;11.50;95.40;;;;;;5005466;28;20033;-76
2022/04/28 03:56:01;;;;;;;4.85;1.50;;;11.50;95.40;;;;;;5005626;28;20037;-76
2022/04/28 03:58:27;;;;;;;3.78;1.80;;;11.40;95.40;;;;;;4997449;28;20042;-73
2022/04/28 04:00:53;;;;;;;3.30;1.50;;;11.40;95.00;;;;;;4995162;28;20057;-76
2022/04/28 04:03:20;;;;;;;4.28;2.13;;;11.40;94.80;;;;;;4998729;28;20056;-76
2022/04/28 04:05:46;;;;;;;3.08;1.45;;;11.40;94.60;;;;;;5001653;28;20034;-76
2022/04/28 04:08:13;;;;;;;2.92;1.10;;;11.20;95.40;;;;;;5002969;28;20045;-76
2022/04/28 04:10:39;;;;;;;3.20;1.20;;;11.30;94.80;;;;;;4996807;28;20065;-77
2022/04/28 04:13:04;;;;;;;3.30;1.50;;;11.40;94.80;;;;;;4999263;28;20092;-76
2022/04/28 04:15:30;;;;;;;3.50;1.55;;;11.40;94.60;;;;;;5005341;28;20600;-76
2022/04/28 04:17:56;;;;;;;2.88;1.50;;;11.40;95.00;;;;;;5000888;28;20123;-76
2022/04/28 04:20:22;;;;;;;2.85;1.45;;;11.40;94.80;;;;;;5000280;28;20105;-76
2022/04/28 04:22:48;;;;;;;3.40;1.20;;;11.40;94.60;;;;;;4987402;28;20057;-75
2022/04/28 04:25:14;;;;;;;4.68;1.35;;;11.40;94.20;;;;;;4988067;28;20117;-73
2022/04/28 04:27:39;;;;;;;2.90;1.60;;;11.30;94.30;;;;;;4982802;28;20419;-75
2022/04/28 04:32:50;;;;;;;;;;;11.20;94.90;;;;;;4982356;28;20079;-74
2022/04/28 04:35:17;;;;;;;4.63;1.30;;;11.10;94.60;;;;;;4981427;28;20699;-76
2022/04/28 04:37:43;;;;;;;3.85;1.60;;;11.10;94.70;;;;;;4977934;28;20034;-76
2022/04/28 04:40:10;;;;;;;3.10;1.40;;;11.20;94.50;;;;;;4985582;28;20030;-75
2022/04/28 04:42:36;;;;;;;2.67;1.52;;;11.20;94.60;;;;;;4976901;28;20058;-76
2022/04/28 04:45:02;;;;;;;3.83;1.65;;;11.10;94.30;;;;;;4995940;28;20549;-76
2022/04/28 04:47:27;;;;;;;4.20;1.40;;;11.10;94.60;;;;;;5001583;28;20048;-77
2022/04/28 04:49:53;;;;;;;3.88;1.50;;;11.10;94.20;;;;;;5004213;28;20045;-78
2022/04/28 04:52:19;;;;;;;3.97;2.10;;;11.10;94.40;;;;;;4995613;28;20081;-76
2022/04/28 04:54:44;;;;;;;2.50;1.33;;;11.10;94.40;;;;;;4993844;28;20049;-77
2022/04/28 04:57:10;;;;;;;3.00;1.40;;;11.10;94.60;;;;;;5003515;28;20034;-76
2022/04/28 04:59:36;;;;;;;2.83;1.15;;;11.10;94.20;;;;;;5001876;28;20042;-73
2022/04/28 05:02:01;;;;;;;2.85;1.50;;;11.10;94.20;;;;;;5000910;28;20052;-74
2022/04/28 05:04:27;;;;;;;4.22;1.50;;;11.00;94.00;;;;;;4999814;28;20467;-73
2022/04/28 05:06:53;;;;;;;2.58;1.35;;;11.00;93.90;;;;;;5002989;28;20619;-74
2022/04/28 05:09:18;;;;;;;3.38;1.33;;;11.10;94.00;;;;;;5000121;28;20131;-74
2022/04/28 05:11:44;;;;;;;3.00;1.60;;;11.20;94.20;;;;;;4994845;28;20937;-74
2022/04/28 05:14:10;;;;;;;3.25;1.40;;;11.30;94.00;;;;;;4994460;28;20027;-74
2022/04/28 05:16:35;;;;;;;3.92;1.35;;;11.30;93.60;;;;;;4998818;28;20030;-74
2022/04/28 05:19:01;;;;;;;1.70;1.00;;;11.30;94.00;;;;;;4984372;28;20968;-75
2022/04/28 05:21:27;;;;;;;4.22;2.00;;;11.40;93.80;;;;;;4979885;28;20113;-74
2022/04/28 05:23:52;;;;;;;2.47;1.20;;;11.40;94.30;;;;;;4981373;28;20682;-74
2022/04/28 05:26:18;;;;;;;5.47;1.38;;;11.40;93.90;;;;;;4984832;28;20038;-74
2022/04/28 05:28:44;;;;;;;5.00;1.35;;;11.50;93.40;;;;;;4986668;28;20400;-73
2022/04/28 05:31:10;;;;;;;6.20;1.80;;;11.50;93.60;;;;;;4979565;28;20039;-73
2022/04/28 05:33:37;;;;;;;3.47;1.75;;;11.50;93.20;;;;;;4973889;28;20043;-73
2022/04/28 05:36:09;;;;;;;3.65;1.35;;;11.50;93.20;;;;;;4986397;28;20037;-74
2022/04/28 05:38:37;;;;;;;3.67;1.27;;;11.60;93.20;;;;;;4987183;28;20091;-73
2022/04/28 05:41:07;;;;;;;3.70;1.20;;;11.60;93.80;;;;;;4977951;28;20162;-75
2022/04/28 05:46:18;;;;;;;3.67;1.20;;;11.70;93.60;;;;;;4995643;28;20100;-74
2022/04/28 05:48:44;;;;;;;3.90;2.10;;;11.80;93.80;;;;;;5004312;28;20599;-74
2022/04/28 05:51:12;;;;;;;5.93;2.50;;;11.90;94.40;;;;;;5004085;28;20064;-74
2022/04/28 05:53:40;;;;;;;6.25;1.88;;;12.00;94.50;;;;;;5001669;28;20104;-74
2022/04/28 05:56:06;;;;;;;3.22;1.17;;;11.90;93.90;;;;;;5003025;28;20030;-74
2022/04/28 05:58:32;;;;;;;2.00;1.00;;;11.60;93.20;;;;;;4980316;28;20080;-74
2022/04/28 06:00:59;;;;;;;2.28;1.15;;;11.70;93.40;;;;;;4984900;28;20036;-73
2022/04/28 06:03:25;;;;;;;3.35;1.45;;;11.70;92.90;;;;;;4981502;28;20032;-72
2022/04/28 06:05:51;;;;;;;2.78;1.13;;;11.70;93.20;;;;;;4985509;28;20033;-73
2022/04/28 06:08:16;;;;;;;3.63;1.52;;;11.70;93.40;;;;;;4990995;28;20073;-73
2022/04/28 06:10:42;;;;;;;3.92;1.50;;;11.70;93.80;;;;;;4982976;28;20134;-73
2022/04/28 06:13:08;;;;;;;4.72;1.42;;;11.70;94.00;;;;;;4987079;28;20042;-73
2022/04/28 06:15:34;;;;;;;3.42;1.88;;;11.70;93.90;;;;;;5000229;28;20037;-74
2022/04/28 06:17:59;;;;;;;2.75;1.45;;;11.60;94.20;;;;;;4999658;28;20068;-74
2022/04/28 06:20:26;;;;;;;2.97;1.58;;;11.70;94.00;;;;;;4992972;28;20034;-72
2022/04/28 06:22:51;;;;;;;2.58;1.30;;;12.00;94.10;;;;;;4986726;28;20046;-71
2022/04/28 06:25:17;;;;;;;37.95;27.95;;;12.20;95.20;;;;;;4988703;28;20022;-73
2022/04/28 06:27:43;;;;;;;4.72;2.50;;;12.30;95.30;;;;;;5007167;28;20038;-73
2022/04/28 06:30:09;;;;;;;4.03;1.48;;;12.10;94.40;;;;;;4986282;28;20045;-73
2022/04/28 06:32:35;;;;;;;3.33;1.30;;;12.20;94.00;;;;;;4992901;28;20034;-72
2022/04/28 06:35:02;;;;;;;112.90;50.40;;;12.50;94.10;;;;;;4999653;28;20698;-73
2022/04/28 06:37:28;;;;;;;122.22;60.03;;;12.70;93.90;;;;;;5005144;28;20038;-73
2022/04/28 06:39:54;;;;;;;31.33;15.00;;;13.00;93.70;;;;;;5001043;28;20049;-73
2022/04/28 06:42:20;;;;;;;128.48;58.67;;;13.10;93.80;;;;;;5005882;28;20034;-73
2022/04/28 06:44:46;;;;;;;56.97;27.25;;;13.00;93.00;;;;;;5004103;28;20022;-73
2022/04/28 06:47:11;;;;;;;36.22;18.63;;;13.00;93.20;;;;;;5005901;28;20285;-73
2022/04/28 06:49:37;;;;;;;20.90;10.88;;;13.10;92.90;;;;;;4997555;28;20029;-73
2022/04/28 06:52:03;;;;;;;8.32;4.45;;;13.50;92.70;;;;;;5006465;28;20034;-73
2022/04/28 06:54:29;;;;;;;3.97;1.98;;;13.70;92.10;;;;;;5002290;28;20033;-72
2022/04/28 06:56:54;;;;;;;3.53;1.45;;;13.80;91.70;;;;;;4990204;28;20034;-73
2022/04/28 06:59:20;;;;;;;4.60;1.52;;;13.80;91.90;;;;;;4982655;28;20035;-73
2022/04/28 07:01:46;;;;;;;7.55;1.55;;;14.30;91.00;;;;;;4988523;28;20728;-73
2022/04/28 07:04:12;;;;;;;3.72;1.20;;;15.20;90.60;;;;;;4988672;28;20022;-73
2022/04/28 07:06:38;;;;;;;4.28;1.63;;;16.30;89.50;;;;;;4988904;28;20056;-73
2022/04/28 07:09:04;;;;;;;3.33;1.40;;;15.70;86.60;;;;;;4997087;28;20091;-73
2022/04/28 07:11:29;;;;;;;3.05;1.60;;;16.70;84.80;;;;;;4997055;28;20034;-73
2022/04/28 07:13:55;;;;;;;4.60;1.58;;;17.80;82.50;;;;;;5005957;28;20041;-73
2022/04/28 07:16:21;;;;;;;4.68;1.25;;;18.60;80.90;;;;;;4991279;28;20493;-73
2022/04/28 07:18:46;;;;;;;3.05;1.75;;;18.60;80.00;;;;;;5002508;28;20033;-74
2022/04/28 07:21:12;;;;;;;4.38;1.25;;;19.10;79.50;;;;;;5002300;28;20035;-73
2022/04/28 07:23:38;;;;;;;5.65;1.95;;;18.30;79.50;;;;;;5003948;28;20033;-73
2022/04/28 07:26:03;;;;;;;6.80;2.10;;;18.80;79.60;;;;;;5004344;28;20029;-73
2022/04/28 07:28:29;;;;;;;5.55;1.63;;;19.10;80.20;;;;;;4997655;28;20049;-73
2022/04/28 07:30:54;;;;;;;4.18;1.35;;;19.80;77.60;;;;;;5005323;28;20079;-73
2022/04/28 07:33:20;;;;;;;5.65;1.85;;;20.80;76.10;;;;;;4996358;28;20086;-73
2022/04/28 07:35:46;;;;;;;3.90;1.52;;;20.30;75.60;;;;;;4985736;28;20049;-72
2022/04/28 07:38:11;;;;;;;3.90;1.67;;;20.50;75.30;;;;;;4986833;28;20148;-77
2022/04/28 07:40:37;;;;;;;3.67;1.55;;;20.20;75.10;;;;;;4999960;28;20038;-75
2022/04/28 07:43:04;;;;;;;3.22;1.58;;;19.10;77.00;;;;;;5004744;28;20591;-73
2022/04/28 07:45:30;;;;;;;3.78;1.45;;;17.00;81.10;;;;;;5001478;28;20473;-73
2022/04/28 07:47:56;;;;;;;6.55;2.10;;;15.80;83.30;;;;;;5003334;28;20041;-73
2022/04/28 07:50:22;;;;;;;5.57;1.17;;;15.10;85.30;;;;;;4998611;28;20034;-73
2022/04/28 07:52:48;;;;;;;4.50;1.60;;;14.60;86.40;;;;;;4999499;28;20030;-73
2022/04/28 07:55:14;;;;;;;3.17;1.60;;;14.50;87.60;;;;;;5005037;28;20052;-73
2022/04/28 07:57:41;;;;;;;4.88;1.83;;;14.40;89.10;;;;;;5001374;28;20117;-73
2022/04/28 08:00:08;;;;;;;2.67;1.27;;;14.20;88.20;;;;;;4995145;28;20649;-73
2022/04/28 08:02:36;;;;;;;3.10;1.35;;;14.30;89.10;;;;;;4991963;28;20084;-72
2022/04/28 08:05:04;;;;;;;4.65;1.77;;;14.30;88.40;;;;;;5003628;28;20089;-72
2022/04/28 08:07:31;;;;;;;2.72;1.30;;;14.30;88.40;;;;;;5003383;28;20042;-73
2022/04/28 08:09:57;;;;;;;2.55;1.30;;;14.30;86.90;;;;;;4994847;28;20018;-73
2022/04/28 08:12:23;;;;;;;2.55;1.20;;;14.40;88.50;;;;;;4998376;28;20491;-73
2022/04/28 08:14:48;;;;;;;3.58;1.60;;;14.40;87.30;;;;;;5004076;28;20046;-72
2022/04/28 08:17:14;;;;;;;2.20;1.10;;;14.50;88.60;;;;;;4996147;28;20033;-72
2022/04/28 08:19:40;;;;;;;4.30;1.70;;;14.60;87.90;;;;;;5000424;28;20074;-73
2022/04/28 08:22:06;;;;;;;3.05;1.33;;;14.40;87.00;;;;;;5005009;28;20046;-72
2022/04/28 08:24:31;;;;;;;4.15;1.48;;;15.60;88.00;;;;;;5003890;28;20037;-72
2022/04/28 08:26:57;;;;;;;5.30;1.60;;;17.50;82.50;;;;;;4998118;28;20042;-72
2022/04/28 08:29:23;;;;;;;2.83;1.17;;;18.50;80.00;;;;;;4999108;28;20060;-73
2022/04/28 08:31:49;;;;;;;3.92;1.67;;;19.20;79.60;;;;;;5004590;28;20025;-72
2022/04/28 08:34:17;;;;;;;3.42;1.20;;;20.10;78.90;;;;;;5004374;28;20034;-72
2022/04/28 08:36:44;;;;;;;5.07;1.30;;;20.00;76.40;;;;;;4996104;28;20125;-72
2022/04/28 08:39:10;;;;;;;3.72;1.13;;;19.90;75.30;;;;;;4987220;28;20027;-72
2022/04/28 08:41:41;;;;;;;4.30;1.30;;;20.00;76.90;;;;;;4978254;28;20044;-72
2022/04/28 08:44:19;;;;;;;2.35;1.33;;;19.30;77.90;;;;;;4984584;28;20111;-72
2022/04/28 08:46:51;;;;;;;3.28;1.67;;;18.80;77.50;;;;;;4982909;28;20072;-72
2022/04/28 08:49:42;;;;;;;33.50;3.53;;;18.30;78.70;;;;;;4984228;28;20053;-74
2022/04/28 08:52:08;;;;;;;3.38;1.85;;;17.80;81.80;;;;;;4990941;28;20060;-72
2022/04/28 08:54:36;;;;;;;3.83;1.52;;;17.10;82.40;;;;;;4982256;28;20033;-72
2022/04/28 08:57:02;;;;;;;5.82;2.10;;;16.50;83.30;;;;;;4987415;28;20073;-72
2022/04/28 08:59:27;;;;;;;4.57;1.40;;;16.50;82.50;;;;;;4985604;28;20057;-72
2022/04/28 09:01:53;;;;;;;3.22;1.90;;;16.40;82.30;;;;;;4996004;28;20033;-72
2022/04/28 09:04:22;;;;;;;4.07;1.50;;;16.30;83.00;;;;;;4995718;28;20062;-71
2022/04/28 09:06:51;;;;;;;4.80;1.50;;;16.50;84.00;;;;;;4985556;28;20104;-72
2022/04/28 09:09:18;;;;;;;3.30;1.70;;;16.00;83.50;;;;;;4981049;28;20107;-71
2022/04/28 09:11:45;;;;;;;5.38;1.40;;;16.30;86.00;;;;;;4989564;28;20036;-72
2022/04/28 09:14:13;;;;;;;2.70;1.40;;;16.20;82.50;;;;;;5003720;28;20116;-72
2022/04/28 09:16:59;;;;;;;3.22;1.45;;;16.30;82.10;;;;;;5002156;28;20045;-73
2022/04/28 09:19:37;;;;;;;11.05;7.18;;;16.90;83.00;;;;;;4994068;28;20554;-75
2022/04/28 09:22:08;;;;;;;7.75;5.47;;;17.10;81.50;;;;;;4989155;28;20041;-72
2022/04/28 09:24:35;;;;;;;9.40;6.82;;;17.00;82.70;;;;;;4992270;28;20034;-73
2022/04/28 09:27:01;;;;;;;9.98;3.30;;;17.00;81.60;;;;;;4993042;28;20030;-72
2022/04/28 09:29:29;;;;;;;7.78;1.98;;;17.20;83.00;;;;;;4991206;28;20491;-75
2022/04/28 09:31:56;;;;;;;3.63;1.80;;;17.20;82.20;;;;;;4997527;28;20441;-72
2022/04/28 09:34:24;;;;;;;3.40;1.45;;;17.20;81.70;;;;;;5002503;28;20412;-72
2022/04/28 09:36:50;;;;;;;22.50;19.60;;;17.50;82.80;;;;;;5002731;28;20501;-72
2022/04/28 09:44:53;;;;;;;4.60;1.60;;;17.60;81.90;;;;;;4997563;28;20049;-72
2022/04/28 09:47:20;;;;;;;2.65;1.63;;;17.80;82.80;;;;;;5003806;28;20045;-72
2022/04/28 09:49:52;;;;;;;3.38;1.92;;;17.70;81.40;;;;;;5001098;28;20072;-72
2022/04/28 09:52:19;;;;;;;11.02;9.38;;;17.80;80.90;;;;;;5003163;28;20034;-72
2022/04/28 09:54:47;;;;;;;4.70;3.00;;;17.80;82.40;;;;;;5003363;28;20400;-72
2022/04/28 09:57:13;;;;;;;4.75;2.28;;;17.70;83.30;;;;;;5003646;28;20026;-72
2022/04/28 09:59:39;;;;;;;4.97;2.70;;;18.00;83.60;;;;;;5001369;28;20042;-72
2022/04/28 10:02:12;;;;;;;10.23;7.57;;;18.40;86.10;;;;;;4994518;28;20026;-72
2022/04/28 10:04:41;;;;;;;6.90;3.72;;;18.30;83.20;;;;;;5000268;28;20050;-72
2022/04/28 10:07:07;;;;;;;5.50;3.33;;;18.10;83.50;;;;;;4987768;28;20599;-72
2022/04/28 10:09:38;;;;;;;4.25;2.80;;;18.20;83.20;;;;;;4991884;28;20350;-72
2022/04/28 10:12:06;;;;;;;7.20;3.40;;;18.10;83.60;;;;;;4996974;28;20065;-72
2022/04/28 10:14:34;;;;;;;7.35;2.20;;;18.40;83.10;;;;;;5001973;28;20462;-72
2022/04/28 10:17:01;;;;;;;6.07;3.42;;;18.30;83.90;;;;;;4995385;28;20035;-72
2022/04/28 10:19:34;;;;;;;6.50;4.00;;;18.40;83.50;;;;;;4994250;28;20041;-72
2022/04/28 10:22:04;;;;;;;6.18;3.50;;;19.00;85.50;;;;;;4988086;28;20108;-72
2022/04/28 10:33:03;;;;;;;6.05;3.75;;;19.10;83.40;;;;;;5001391;28;20104;-72
2022/04/28 10:35:42;;;;;;;4.93;3.05;;;19.10;84.40;;;;;;4998936;28;20045;-72
2022/04/28 10:38:34;;;;;;;7.28;3.00;;;19.40;85.90;;;;;;5002294;28;20041;-72
2022/04/28 10:41:06;;;;;;;6.05;3.33;;;19.60;83.80;;;;;;4998302;28;20054;-71
2022/04/28 10:43:32;;;;;;;7.22;3.78;;;19.60;83.40;;;;;;5002153;28;20496;-72
2022/04/28 10:46:01;;;;;;;6.07;3.13;;;19.70;82.10;;;;;;4993704;28;20026;-72
2022/04/28 10:48:30;;;;;;;7.97;3.10;;;19.50;80.00;;;;;;4999903;28;20121;-72
2022/04/28 10:51:00;;;;;;;6.07;2.90;;;19.80;80.50;;;;;;4990659;28;20126;-72
2022/04/28 10:53:27;;;;;;;4.22;2.50;;;20.00;79.70;;;;;;4996642;28;20044;-73
2022/04/28 10:55:54;;;;;;;5.63;2.72;;;19.90;81.80;;;;;;5000023;28;20045;-72
2022/04/28 10:58:24;;;;;;;5.97;2.08;;;19.90;83.10;;;;;;5006049;28;20488;-72
2022/04/28 11:00:57;;;;;;;5.88;2.60;;;20.30;82.70;;;;;;4988031;28;20138;-72
2022/04/28 11:03:57;;;;;;;4.65;2.78;;;20.10;82.10;;;;;;4985165;28;20588;-72
2022/04/28 11:06:37;;;;;;;5.38;2.45;;;20.00;80.50;;;;;;4984662;28;20056;-72
2022/04/28 11:09:05;;;;;;;5.22;2.58;;;20.30;81.20;;;;;;4987067;28;20543;-71
2022/04/28 11:11:45;;;;;;;4.13;2.08;;;20.50;80.60;;;;;;4979909;28;20064;-72
2022/04/28 11:14:11;;;;;;;4.68;2.03;;;20.20;79.00;;;;;;4981700;28;20038;-72
2022/04/28 11:16:40;;;;;;;4.25;1.70;;;20.30;81.10;;;;;;4994472;28;20041;-72
2022/04/28 11:19:07;;;;;;;4.93;2.03;;;20.30;80.40;;;;;;5005191;28;20037;-72
2022/04/28 11:21:43;;;;;;;3.30;1.60;;;20.50;77.60;;;;;;5005610;28;20505;-72
2022/04/28 11:24:09;;;;;;;4.10;1.85;;;20.70;79.50;;;;;;5005781;28;20022;-72
2022/04/28 11:26:36;;;;;;;4.85;2.25;;;20.60;78.40;;;;;;4998726;28;20040;-72
2022/04/28 11:29:09;;;;;;;6.40;1.90;;;20.80;77.70;;;;;;5001450;28;20782;-72
2022/04/28 11:31:43;;;;;;;3.30;1.50;;;20.90;79.70;;;;;;5004342;28;20479;-72
2022/04/28 11:34:09;;;;;;;3.22;1.40;;;21.00;78.70;;;;;;5004243;28;20022;-72
2022/04/28 11:36:37;;;;;;;4.45;1.48;;;20.80;74.80;;;;;;5005523;28;20186;-72
2022/04/28 11:39:03;;;;;;;4.78;1.42;;;20.70;75.90;;;;;;5000308;28;20424;-72
2022/04/28 11:41:32;;;;;;;2.97;1.40;;;20.90;77.10;;;;;;5004027;28;20053;-72
2022/04/28 11:44:05;;;;;;;4.55;1.42;;;21.10;75.50;;;;;;4993588;28;20498;-72
2022/04/28 11:46:32;;;;;;;3.17;1.58;;;21.00;74.20;;;;;;5003787;28;20092;-72
2022/04/28 11:48:58;;;;;;;3.25;2.00;;;20.90;77.00;;;;;;5004679;28;20042;-73
2022/04/28 11:51:26;;;;;;;3.97;1.73;;;20.90;78.70;;;;;;5005117;28;20045;-72
2022/04/28 11:53:55;;;;;;;4.70;1.80;;;21.10;75.90;;;;;;5004394;28;20034;-72
2022/04/28 11:56:25;;;;;;;4.00;1.88;;;21.10;78.70;;;;;;5005516;28;20599;-72
2022/04/28 11:58:52;;;;;;;6.53;1.70;;;21.20;76.70;;;;;;5004339;28;20038;-72
2022/04/28 12:01:22;;;;;;;4.60;1.73;;;21.20;77.30;;;;;;4999996;28;20048;-72
2022/04/28 12:03:51;;;;;;;3.55;1.58;;;21.40;78.30;;;;;;5007032;28;20118;-72
2022/04/28 12:06:17;;;;;;;4.10;1.60;;;21.50;76.80;;;;;;4998326;28;20061;-72
2022/04/28 12:08:57;;;;;;;4.07;1.58;;;21.60;77.00;;;;;;5007509;28;20038;-72
2022/04/28 12:14:23;;;;;;;3.40;1.90;;;21.90;77.00;;;;;;5008322;28;20131;-72
2022/04/28 12:19:50;;;;;;;4.18;1.40;;;21.90;74.10;;;;;;5008138;28;20080;-72
2022/04/28 12:22:29;;;;;;;3.13;1.23;;;21.90;74.50;;;;;;5000896;28;20037;-72
2022/04/28 12:25:00;;;;;;;4.72;1.38;;;21.90;76.00;;;;;;5007192;28;20060;-72
2022/04/28 12:27:35;;;;;;;2.90;1.20;;;22.00;72.60;;;;;;5008124;28;20225;-73
2022/04/28 12:30:08;;;;;;;2.17;1.15;;;21.90;74.70;;;;;;5007979;28;20056;-72
2022/04/28 12:32:56;;;;;;;3.08;1.70;;;21.90;73.40;;;;;;5006325;28;20065;-72
2022/04/28 12:35:35;;;;;;;5.00;1.73;;;22.10;73.20;;;;;;5005652;28;20041;-72
2022/04/28 12:38:08;;;;;;;3.28;1.35;;;21.90;73.60;;;;;;5007820;28;20037;-72
2022/04/28 12:40:41;;;;;;;2.15;0.95;;;21.90;72.10;;;;;;5004051;28;20660;-72
2022/04/28 12:43:08;;;;;;;3.20;1.23;;;21.90;73.00;;;;;;5001479;28;20025;-72
2022/04/28 12:45:50;;;;;;;4.30;1.52;;;22.20;71.00;;;;;;4996097;28;20134;-72
2022/04/28 12:48:25;;;;;;;3.67;1.42;;;22.40;73.00;;;;;;5000126;28;20044;-72
2022/04/28 12:51:07;;;;;;;5.07;1.30;;;22.40;73.20;;;;;;5001150;28;20732;-72
2022/04/28 12:53:33;;;;;;;2.80;0.98;;;22.40;70.30;;;;;;5007106;28;20084;-72
2022/04/28 12:56:10;;;;;;;6.13;1.63;;;22.20;72.40;;;;;;5007018;28;20452;-72
2022/04/28 12:58:48;;;;;;;3.20;1.38;;;22.20;73.60;;;;;;5007255;28;20515;-72
2022/04/28 13:01:17;;;;;;;2.25;1.20;;;22.40;75.50;;;;;;5005590;28;20026;-72
2022/04/28 13:03:54;;;;;;;4.07;1.58;;;22.40;74.10;;;;;;4998747;28;20037;-72
2022/04/28 13:06:21;;;;;;;4.38;1.48;;;22.30;71.00;;;;;;5006257;28;20096;-72
2022/04/28 13:08:51;;;;;;;2.63;1.40;;;22.30;71.70;;;;;;4999925;28;20041;-72
2022/04/28 13:11:18;;;;;;;4.07;1.38;;;22.60;74.00;;;;;;5000882;28;20076;-72
2022/04/28 13:13:44;;;;;;;3.45;1.13;;;22.60;72.70;;;;;;5006806;28;20030;-72
2022/04/28 13:16:10;;;;;;;4.50;1.35;;;22.40;71.20;;;;;;5002851;28;20033;-72
2022/04/28 13:18:36;;;;;;;4.72;1.25;;;22.30;71.50;;;;;;4999608;28;20025;-72
2022/04/28 13:21:02;;;;;;;8.80;1.65;;;22.30;71.90;;;;;;4997808;28;20982;-71
2022/04/28 13:23:28;;;;;;;3.45;1.40;;;22.40;72.40;;;;;;5006590;28;20037;-72
2022/04/28 13:25:54;;;;;;;7.93;1.55;;;22.40;71.90;;;;;;5002277;28;20084;-73